Unlu-5 — TCON5 — position and weather

sailwx.info

Track history (hours):
 
Tides and Currents Weather Stations Pressure Air Temp Water Temp Dewpoint Dewpoint Depression Visibility Wind Speed Wind Dir Waves Ship Positions

Unlu-5

Last reported at 2015-Feb-27 15:31 UTC. Time now 2015-Mar-04 20:19 UTC.
Position N 38°20' E 015°12'.

Length 99 m; draft 6.4 m.

Type: Cargo ship. MMSI: 271000854.

Date/timePositionNaut miles runAvg speedWind from/ knotsBaromVisibWave heightAir tempDewpointWater temp
2015-Feb-27 15:31N 38°20' E 015°12'9 8.7
2015-Feb-27 14:28N 38°19' E 015°01'50 8.5
2015-Feb-27 08:33N 38°21' E 013°57'9 8.6
2015-Feb-27 07:33N 38°22' E 013°46'8 8.4
2015-Feb-27 06:33N 38°23' E 013°35'8 8.2
2015-Feb-27 05:33N 38°23' E 013°25'8 8.1
2015-Feb-27 04:33N 38°24' E 013°15'8 7.7
2015-Feb-27 03:33N 38°24' E 013°05'7 7.4
2015-Feb-27 02:33N 38°25' E 012°55'7 7.0
2015-Feb-27 01:32N 38°26' E 012°46'7 6.8
2015-Feb-27 00:30N 38°27' E 012°38'177 6.7
2015-Feb-25 22:05N 38°36' E 008°52'5 7.6
2015-Feb-25 21:28N 38°35' E 008°46'7 7.5
2015-Feb-25 20:33N 38°35' E 008°37'7 6.7
2015-Feb-25 19:28N 38°35' E 008°28'14 6.8
2015-Feb-25 17:25N 38°37' E 008°10'250 7.3
2015-Feb-24 07:17N 40°25' E 003°17'5 7.0
2015-Feb-24 06:33N 40°26' E 003°11'7 6.9
2015-Feb-24 05:33N 40°29' E 003°03'7 6.8
2015-Feb-24 04:33N 40°31' E 002°54'7 6.6
2015-Feb-24 03:33N 40°34' E 002°46'6 6.4
2015-Feb-24 02:33N 40°36' E 002°38'8 7.5
2015-Feb-24 01:33N 40°39' E 002°29'8 7.8
2015-Feb-24 00:33N 40°41' E 002°19'8 7.9
2015-Feb-23 23:33N 40°45' E 002°10'8 8.3
2015-Feb-23 22:33N 40°49' E 002°00'9 8.7
2015-Feb-23 21:33N 40°52' E 001°50'8 8.4
2015-Feb-23 20:33N 40°55' E 001°39'22 1.1
2015-Feb-23 01:26N 41°06' E 001°14'0 0.0
2015-Feb-23 00:20N 41°06' E 001°14'0 0.0
2015-Feb-22 22:32N 41°06' E 001°14'0 0.0
2015-Feb-22 20:08N 41°06' E 001°14'0 0.0
2015-Feb-22 15:32N 41°06' E 001°14'0 0.0
2015-Feb-21 23:08N 41°06' E 001°14'3 0.0
2015-Feb-19 19:10N 41°04' E 001°12'4 5.0
2015-Feb-19 18:27N 41°00' E 001°12'  
Track history (hours):
 
Tides and Currents Weather Stations Pressure Air Temp Water Temp Dewpoint Dewpoint Depression Visibility Wind Speed Wind Dir Waves Ship Positions

Unlu-5

Last reported at 2015-Feb-27 15:31 UTC. Time now 2015-Mar-04 20:19 UTC.
Position N 38°20' E 015°12'.

Length 99 m; draft 6.4 m.

Type: Cargo ship. MMSI: 271000854.

Date/timePositionNaut miles runAvg speedWind from/ knotsBaromVisibWave heightAir tempDewpointWater temp
2015-Feb-27 15:31N 38°20' E 015°12'9 8.7
2015-Feb-27 14:28N 38°19' E 015°01'50 8.5
2015-Feb-27 08:33N 38°21' E 013°57'9 8.6
2015-Feb-27 07:33N 38°22' E 013°46'8 8.4
2015-Feb-27 06:33N 38°23' E 013°35'8 8.2
2015-Feb-27 05:33N 38°23' E 013°25'8 8.1
2015-Feb-27 04:33N 38°24' E 013°15'8 7.7
2015-Feb-27 03:33N 38°24' E 013°05'7 7.4
2015-Feb-27 02:33N 38°25' E 012°55'7 7.0
2015-Feb-27 01:32N 38°26' E 012°46'7 6.8
2015-Feb-27 00:30N 38°27' E 012°38'177 6.7
2015-Feb-25 22:05N 38°36' E 008°52'5 7.6
2015-Feb-25 21:28N 38°35' E 008°46'7 7.5
2015-Feb-25 20:33N 38°35' E 008°37'7 6.7
2015-Feb-25 19:28N 38°35' E 008°28'14 6.8
2015-Feb-25 17:25N 38°37' E 008°10'250 7.3
2015-Feb-24 07:17N 40°25' E 003°17'5 7.0
2015-Feb-24 06:33N 40°26' E 003°11'7 6.9
2015-Feb-24 05:33N 40°29' E 003°03'7 6.8
2015-Feb-24 04:33N 40°31' E 002°54'7 6.6
2015-Feb-24 03:33N 40°34' E 002°46'6 6.4
2015-Feb-24 02:33N 40°36' E 002°38'8 7.5
2015-Feb-24 01:33N 40°39' E 002°29'8 7.8
2015-Feb-24 00:33N 40°41' E 002°19'8 7.9
2015-Feb-23 23:33N 40°45' E 002°10'8 8.3
2015-Feb-23 22:33N 40°49' E 002°00'9 8.7
2015-Feb-23 21:33N 40°52' E 001°50'8 8.4
2015-Feb-23 20:33N 40°55' E 001°39'22 1.1
2015-Feb-23 01:26N 41°06' E 001°14'0 0.0
2015-Feb-23 00:20N 41°06' E 001°14'0 0.0
2015-Feb-22 22:32N 41°06' E 001°14'0 0.0
2015-Feb-22 20:08N 41°06' E 001°14'0 0.0
2015-Feb-22 15:32N 41°06' E 001°14'0 0.0
2015-Feb-21 23:08N 41°06' E 001°14'3 0.0
2015-Feb-19 19:10N 41°04' E 001°12'4 5.0
2015-Feb-19 18:27N 41°00' E 001°12'  

Dump ship's entire track history